createdAt,value
2017-11-14T00:05:25.245Z,4.27
2017-11-14T00:11:28.716Z,4.33
2017-11-14T00:17:32.952Z,4.48
2017-11-14T00:23:36.411Z,4.63
2017-11-14T00:29:40.013Z,4.77
2017-11-14T00:35:43.474Z,4.86
2017-11-14T00:41:46.943Z,4.73
2017-11-14T00:47:51.170Z,4.73
2017-11-14T00:53:54.623Z,4.82
2017-11-14T00:59:58.101Z,4.94
2017-11-14T01:06:01.564Z,5.08
2017-11-14T01:12:05.042Z,5.16
2017-11-14T01:18:08.515Z,5.27
2017-11-14T01:24:11.995Z,5.28
2017-11-14T01:30:15.467Z,5.32
2017-11-14T01:36:19.280Z,5.30
2017-11-14T01:42:22.733Z,5.38
2017-11-14T01:48:26.278Z,5.36
2017-11-14T01:54:29.750Z,5.32
2017-11-14T02:00:50.016Z,5.35
2017-11-14T02:06:53.802Z,5.36
2017-11-14T02:12:57.272Z,5.32
2017-11-14T02:19:00.728Z,5.28
2017-11-14T02:25:04.936Z,5.24
2017-11-14T02:31:08.405Z,5.20
2017-11-14T02:37:12.636Z,5.20
2017-11-14T02:43:16.074Z,5.25
2017-11-14T02:49:19.519Z,5.32
2017-11-14T02:55:23.000Z,5.36
2017-11-14T03:01:26.465Z,5.35
2017-11-14T03:07:29.963Z,5.31
2017-11-14T03:13:34.768Z,5.25
2017-11-14T03:19:38.209Z,5.10
2017-11-14T03:25:41.963Z,5.05
2017-11-14T03:31:45.393Z,5.09
2017-11-14T03:37:49.629Z,5.04
2017-11-14T03:43:53.108Z,5.07
2017-11-14T03:49:56.570Z,5.21
2017-11-14T03:56:00.795Z,5.16
2017-11-14T04:02:04.615Z,5.05
2017-11-14T04:08:08.408Z,5.07
2017-11-14T04:14:12.028Z,5.12
2017-11-14T04:20:16.257Z,5.25
2017-11-14T04:26:19.876Z,5.23
2017-11-14T04:32:23.356Z,5.23
2017-11-14T04:38:26.818Z,5.21
2017-11-14T04:44:30.331Z,5.17
2017-11-14T04:50:33.798Z,5.21
2017-11-14T04:56:37.283Z,5.31
2017-11-14T05:02:40.735Z,5.34
2017-11-14T05:08:45.291Z,5.35
2017-11-14T05:14:48.779Z,5.28
2017-11-14T05:20:52.255Z,5.21
2017-11-14T05:26:55.726Z,5.13
2017-11-14T05:32:59.194Z,5.14
2017-11-14T05:39:03.266Z,5.05
2017-11-14T05:45:07.488Z,5.05
2017-11-14T05:51:10.967Z,5.01
2017-11-14T05:57:14.438Z,4.99
2017-11-14T06:03:18.689Z,4.89
2017-11-14T06:09:22.378Z,4.82
2017-11-14T06:15:25.815Z,4.73
2017-11-14T06:21:30.168Z,4.61
2017-11-14T06:27:33.733Z,4.61
2017-11-14T06:33:37.207Z,4.43
2017-11-14T06:39:40.692Z,4.11
2017-11-14T06:45:44.182Z,3.96
2017-11-14T06:51:47.649Z,3.99
2017-11-14T06:57:51.482Z,4.04
2017-11-14T07:03:54.935Z,4.23
2017-11-14T07:09:58.394Z,4.39
2017-11-14T07:16:03.320Z,4.38
2017-11-14T07:22:06.791Z,4.48
2017-11-14T07:28:11.354Z,4.69
2017-11-14T07:34:14.818Z,4.84
2017-11-14T07:40:18.289Z,4.91
2017-11-14T07:46:21.801Z,5.07
2017-11-14T07:52:25.324Z,5.17
2017-11-14T07:58:29.572Z,5.31
2017-11-14T08:04:33.045Z,5.34
2017-11-14T08:10:36.523Z,5.39
2017-11-14T08:16:39.996Z,5.32
2017-11-14T08:22:44.253Z,5.40
2017-11-14T08:28:47.773Z,5.49
2017-11-14T08:34:51.257Z,5.61
2017-11-14T08:40:54.725Z,5.82
2017-11-14T08:46:58.486Z,5.99
2017-11-14T08:53:01.949Z,6.13
2017-11-14T08:59:05.775Z,6.10
2017-11-14T09:05:09.220Z,6.37
2017-11-14T09:11:12.693Z,6.80
2017-11-14T09:17:16.507Z,6.93
2017-11-14T09:23:19.974Z,6.82
2017-11-14T09:29:23.800Z,6.80
2017-11-14T09:35:27.250Z,7.15
2017-11-14T09:41:30.702Z,7.14
2017-11-14T09:47:34.154Z,7.42
2017-11-14T09:53:37.921Z,7.56
2017-11-14T09:59:41.361Z,7.41
2017-11-14T10:05:44.835Z,8.00
2017-11-14T10:11:48.360Z,7.88
2017-11-14T10:17:51.815Z,7.53
2017-11-14T10:23:55.260Z,7.64
2017-11-14T10:29:58.708Z,7.74
2017-11-14T10:36:02.548Z,7.83
2017-11-14T10:42:05.978Z,8.14
2017-11-14T10:48:09.703Z,8.52
2017-11-14T10:54:13.128Z,8.65
2017-11-14T11:00:22.701Z,8.70
2017-11-14T11:06:26.148Z,8.30
2017-11-14T11:12:30.354Z,8.15
2017-11-14T11:18:34.913Z,7.81
2017-11-14T11:24:38.392Z,7.55
2017-11-14T11:30:41.846Z,7.59
2017-11-14T11:36:45.294Z,7.55
2017-11-14T11:42:48.764Z,7.54
2017-11-14T11:48:52.236Z,7.49
2017-11-14T11:54:56.025Z,7.55
2017-11-14T12:00:59.536Z,7.61
2017-11-14T12:07:04.014Z,7.65
2017-11-14T12:13:07.463Z,7.61
2017-11-14T12:19:10.927Z,7.70
2017-11-14T12:25:15.148Z,7.76
2017-11-14T12:31:18.588Z,7.73
2017-11-14T12:37:22.455Z,7.71
2017-11-14T12:43:25.910Z,7.68
2017-11-14T12:49:29.387Z,7.65
2017-11-14T12:55:32.974Z,7.73
2017-11-14T13:01:36.459Z,7.92
2017-11-14T13:07:39.931Z,7.86
2017-11-14T13:13:44.169Z,7.91
2017-11-14T13:19:47.638Z,7.99
2017-11-14T13:25:51.097Z,8.16
2017-11-14T13:31:55.314Z,8.16
2017-11-14T13:37:58.759Z,8.07
2017-11-14T13:44:02.355Z,7.95
2017-11-14T13:50:05.825Z,7.84
2017-11-14T13:56:09.609Z,7.89
2017-11-14T14:02:13.080Z,8.01
2017-11-14T14:08:16.868Z,8.13
2017-11-14T14:14:20.339Z,8.11
2017-11-14T14:20:23.806Z,8.12
2017-11-14T14:26:27.630Z,8.04
2017-11-14T14:32:31.123Z,7.86
2017-11-14T14:38:34.591Z,7.95
2017-11-14T14:44:38.049Z,8.01
2017-11-14T14:50:41.875Z,7.97
2017-11-14T14:56:45.341Z,7.84
2017-11-14T15:02:49.152Z,7.74
2017-11-14T15:08:52.624Z,8.09
2017-11-14T15:14:56.190Z,7.70
2017-11-14T15:20:59.665Z,7.47
2017-11-14T15:27:03.135Z,7.41
2017-11-14T15:33:07.369Z,7.40
2017-11-14T15:39:10.894Z,7.27
2017-11-14T15:45:14.382Z,7.16
2017-11-14T15:51:17.866Z,7.15
2017-11-14T15:57:22.124Z,7.11
2017-11-14T16:03:25.596Z,7.12
2017-11-14T16:09:29.064Z,7.08
2017-11-14T16:15:32.526Z,7.01
2017-11-14T16:21:36.033Z,7.02
2017-11-14T16:27:39.517Z,7.02
2017-11-14T16:33:43.776Z,6.93
2017-11-14T16:39:47.556Z,6.95
2017-11-14T16:45:51.013Z,6.86
2017-11-14T16:51:54.639Z,6.87
2017-11-14T16:57:58.097Z,6.93
2017-11-14T17:04:01.574Z,6.85
2017-11-14T17:10:05.047Z,6.95
2017-11-14T17:16:08.560Z,6.92
2017-11-14T17:22:12.028Z,6.87
2017-11-14T17:28:15.547Z,6.88
2017-11-14T17:34:19.040Z,6.84
2017-11-14T17:40:22.506Z,6.81
2017-11-14T17:46:25.992Z,6.81
2017-11-14T17:52:29.868Z,6.73
2017-11-14T17:58:33.356Z,6.76
2017-11-14T18:04:36.839Z,6.68
2017-11-14T18:10:40.346Z,6.64
2017-11-14T18:16:43.825Z,6.67
2017-11-14T18:22:47.309Z,6.67
2017-11-14T18:28:50.786Z,6.76
2017-11-14T18:34:54.269Z,6.72
2017-11-14T18:40:57.741Z,6.77
2017-11-14T18:47:01.243Z,6.77
2017-11-14T18:53:04.736Z,6.81
2017-11-14T18:59:08.229Z,6.77
2017-11-14T19:05:11.751Z,6.70
2017-11-14T19:11:15.242Z,6.61
2017-11-14T19:17:18.732Z,6.63
2017-11-14T19:23:22.239Z,6.55
2017-11-14T19:29:26.527Z,6.60
2017-11-14T19:35:30.083Z,6.57
2017-11-14T19:41:34.310Z,6.56
2017-11-14T19:47:37.816Z,6.64
2017-11-14T19:53:42.144Z,6.63
2017-11-14T19:59:47.126Z,6.67
2017-11-14T20:05:50.615Z,6.67
2017-11-14T20:11:54.109Z,6.57
2017-11-14T20:17:57.572Z,6.48
2017-11-14T20:24:01.125Z,6.52
2017-11-14T20:30:05.394Z,6.56
2017-11-14T20:36:08.857Z,6.48
2017-11-14T20:42:12.663Z,6.48
2017-11-14T20:48:16.195Z,6.40
2017-11-14T20:54:19.680Z,6.47
2017-11-14T21:00:23.207Z,6.46
2017-11-14T21:06:26.688Z,6.31
2017-11-14T21:12:30.504Z,6.27
2017-11-14T21:18:33.981Z,6.35
2017-11-14T21:24:37.494Z,6.32
2017-11-14T21:30:41.724Z,6.39
2017-11-14T21:36:45.211Z,6.31
2017-11-14T21:42:48.667Z,6.40
2017-11-14T21:48:52.924Z,6.37
2017-11-14T21:54:56.400Z,6.40
2017-11-14T22:00:59.931Z,6.31
2017-11-14T22:07:04.671Z,6.33
2017-11-14T22:13:08.493Z,6.38
2017-11-14T22:19:12.013Z,6.47
2017-11-14T22:25:15.470Z,6.44
2017-11-14T22:31:18.938Z,6.40
2017-11-14T22:37:24.044Z,6.43
2017-11-14T22:43:27.532Z,6.48
2017-11-14T22:49:31.540Z,6.44
2017-11-14T22:55:35.018Z,6.40
2017-11-14T23:01:38.484Z,6.38
2017-11-14T23:07:42.029Z,6.38
2017-11-14T23:13:45.556Z,6.48
2017-11-14T23:19:49.061Z,6.50
2017-11-14T23:25:52.607Z,6.56
2017-11-14T23:31:56.156Z,6.57
2017-11-14T23:38:00.474Z,6.50
2017-11-14T23:44:03.973Z,6.58
2017-11-14T23:50:08.298Z,6.61
2017-11-14T23:56:11.863Z,6.60
